• Join FlightAware (Why Join?)
  • Login
  • US Flag 
09:23AM EDT


 

Airport Tracker/Info


-or-


 

Live Flight TrackerFlight Track Log ✈ EJM214 ✈ 27-Jun-2013 ✈ KITR - KLSE

Flight Track Log - Related Links

Times and Time Zones

All times are in EDT time to prevent confusion due to time zone crossing. See the EJM214 flight status page for this flight to view local times or setup timezone preferences in your user account.

Time Position Orientation Groundspeed Altitude Reporting Facility
EDT Latitude Longitude Course Direction KTS MPH feet Rate Location/Type
03:27PM 39.3461 -102.1431 60° Northeast 308 354 10,100  Level Denver Center
03:28PM 39.3992 -102.0333 58° Northeast 323 372 13,800 2,880 Climbing Denver Center
03:29PM 39.4514 -101.9311 56° Northeast 356 410 16,200 2,640 Climbing Denver Center
03:30PM 39.5161 -101.7978 58° Northeast 390 449 19,300 3,000 Climbing Denver Center
03:31PM 39.5722 -101.6811 58° Northeast 399 459 22,400 2,760 Climbing Denver Center
03:32PM 39.5368 -101.6709 60° Northeast  Level FlightAware Approximate
03:32PM 39.6406 -101.5414 58° Northeast 412 474 25,100  Level Denver Center
03:33PM 39.7006 -101.4172 58° Northeast 422 486 27,000 1,740 Climbing Denver Center
03:34PM 39.7742 -101.2672 57° Northeast 441 507 28,800 1,500 Climbing Denver Center
03:36PM 39.8392 -101.1331 58° Northeast 454 522 30,200 1,500 Climbing Denver Center
03:37PM 39.9158 -100.9706 58° Northeast 470 541 31,900 1,500 Climbing Denver Center
03:38PM 39.9828 -100.8322 58° Northeast 473 544 33,400 1,500 Climbing Denver Center
03:39PM 40.0589 -100.6681 59° Northeast 474 545 35,000 1,500 Climbing Denver Center
03:40PM 40.1250 -100.5281 58° Northeast 475 547 36,600 1,920 Climbing Denver Center
03:41PM 40.1997 -100.3672 59° Northeast 465 535 39,000 2,040 Climbing Denver Center
03:42PM 40.2603 -100.2369 59° Northeast 446 513 40,900 1,620 Climbing Denver Center
03:43PM 40.3292 -100.0911 58° Northeast 427 491 42,400 960 Climbing Denver Center
03:44PM 40.3878 -99.9642 59° Northeast 426 490 42,900 480 Climbing Denver Center
03:45PM 40.4494 -99.8314 59° Northeast 438 504 43,400 480 Climbing Denver Center
03:46PM 40.5125 -99.6922 59° Northeast 442 509 43,900 480 Climbing Denver Center
03:47PM 40.5889 -99.5261 59° Northeast 444 511 44,500 600 Climbing Denver Center
03:47PM 40.6278 -99.4428 58° Northeast 446 513 44,900 300 Climbing Minneapolis Center
03:49PM 40.6917 -99.3006 59° Northeast 451 519 45,000  Climbing Minneapolis Center
03:50PM 40.7575 -99.1564 59° Northeast 455 524 45,000  Level Minneapolis Center
03:51PM 40.8208 -99.0114 60° Northeast 459 528 45,000  Level Minneapolis Center
03:52PM 40.8850 -98.8653 60° Northeast 459 528 45,000  Level Minneapolis Center
03:53PM 40.9481 -98.7178 60° Northeast 460 529 45,000  Level Minneapolis Center
03:54PM 41.0283 -98.5433 59° Northeast 463 533 45,000  Level Minneapolis Center
03:55PM 41.0889 -98.4064 60° Northeast 458 527 45,000  Level Minneapolis Center
03:56PM 41.1522 -98.2631 60° Northeast 455 524 45,000  Level Minneapolis Center
03:57PM 41.2153 -98.1186 60° Northeast 454 522 45,000  Level Minneapolis Center
03:58PM 41.2911 -97.9464 60° Northeast 452 520 45,000  Level Minneapolis Center
03:59PM 41.3581 -97.7911 60° Northeast 453 521 45,000  Level Minneapolis Center
04:00PM 41.4214 -97.6450 60° Northeast 454 522 45,000  Level Minneapolis Center
04:01PM 41.4833 -97.5003 60° Northeast 451 519 45,000  Level Minneapolis Center
04:02PM 41.5458 -97.3544 60° Northeast 452 520 45,000  Level Minneapolis Center
04:03PM 41.6075 -97.2083 61° Northeast 451 519 45,000  Level Minneapolis Center
04:04PM 41.6697 -97.0619 60° Northeast 451 519 45,000  Level Minneapolis Center
04:05PM 41.7311 -96.9158 61° Northeast 450 518 45,000  Level Minneapolis Center
04:06PM 41.8047 -96.7392 61° Northeast 450 518 45,000  Level Minneapolis Center
04:07PM 41.8656 -96.5908 61° Northeast 451 519 45,000  Level Minneapolis Center
04:08PM 41.9269 -96.4417 61° Northeast 453 521 45,000  Level Minneapolis Center
04:09PM 41.9875 -96.2933 61° Northeast 452 520 45,000  Level Minneapolis Center
04:10PM 42.0503 -96.1425 61° Northeast 457 526 45,000  Level Minneapolis Center
04:11PM 42.1100 -95.9925 62° Northeast 455 524 45,000  Level Minneapolis Center
04:12PM 42.1708 -95.8408 62° Northeast 456 525 45,000  Level Minneapolis Center
04:13PM 42.2433 -95.6592 62° Northeast 457 526 45,000  Level Minneapolis Center
04:14PM 42.3044 -95.5067 62° Northeast 460 529 45,000  Level Minneapolis Center
04:15PM 42.3642 -95.3544 62° Northeast 457 526 45,000  Level Minneapolis Center
04:16PM 42.4247 -95.2006 62° Northeast 461 531 45,000  Level Minneapolis Center
04:18PM 42.4853 -95.0483 62° Northeast 459 528 45,000  Level Minneapolis Center
04:19PM 42.5569 -94.8639 62° Northeast 462 532 45,000  Level Minneapolis Center
04:20PM 42.6292 -94.6778 62° Northeast 464 534 45,000 -420 Level Minneapolis Center
04:21PM 42.6786 -94.5464 63° Northeast 461 531 44,200 -1,560 Descending Minneapolis Center
04:22PM 42.7508 -94.3614 62° Northeast 465 535 41,800 -2,160 Descending Minneapolis Center
04:23PM 42.8094 -94.2047 63° Northeast 468 539 39,800 -1,980 Descending Minneapolis Center
04:24PM 42.8672 -94.0528 63° Northeast 458 527 37,800 -1,380 Descending Minneapolis Center
04:25PM 42.9264 -93.8972 63° Northeast 464 534 37,000 -780 Descending Minneapolis Center
04:26PM 42.9853 -93.7392 63° Northeast 468 539 36,200 -1,620 Descending Minneapolis Center
04:27PM 43.0717 -93.5056 63° Northeast 495 570 33,400 -2,160 Descending Minneapolis Center
04:28PM 43.1164 -93.3175 72° East 520 598 31,400 -1,980 Descending Minneapolis Center
04:29PM 43.1617 -93.1319 71° East 520 598 29,400 -1,980 Descending Minneapolis Center
04:30PM 43.2117 -92.9458 70° East 523 602 27,400 -2,100 Descending Minneapolis Center
04:31PM 43.2717 -92.7728 64° Northeast 506 582 25,100 -2,100 Descending Minneapolis Center
04:32PM 43.3483 -92.5878 60° Northeast 472 543 23,100 -2,100 Descending Minneapolis Center
04:33PM 43.4086 -92.4389 61° Northeast 453 521 20,800 -2,280 Descending Minneapolis Center
04:35PM 43.4669 -92.2939 61° Northeast 441 507 18,500 -2,280 Descending Minneapolis Center
04:36PM 43.5247 -92.1503 61° Northeast 433 498 16,100 -2,280 Descending Minneapolis Center
04:37PM 43.5800 -92.0131 61° Northeast 408 470 13,800 -2,520 Descending Minneapolis Center
04:38PM 43.6406 -91.8583 62° Northeast 384 442 11,000 -1,980 Descending Minneapolis Center
04:39PM 43.6664 -91.7586 70° East 352 405 9,800 -1,500 Descending Minneapolis Center
04:40PM 43.6650 -91.6072 91° East 311 358 7,900 -1,980 Descending Minneapolis Center
04:41PM 43.6958 -91.5000 68° East 284 327 5,800 -2,040 Descending Minneapolis Center
04:42PM 43.7275 -91.4019 66° East 288 331 3,800 -1,320 Descending Minneapolis Center
04:43PM 43.7794 -91.3144 51° Northeast 263 303 3,100 -660 Descending Minneapolis Center
04:44PM 43.8133 -91.2567 51° Northeast 247 284 2,500 -600 Descending Minneapolis Center